Time;durP1;ratioP1;P1;durP2;ratioP2;P2;SDS_P1;SDS_P2;PMS_P1;PMS_P2;Temp;Humidity;BMP_temperature;BMP_pressure;BME280_temperature;BME280_humidity;BME280_pressure;Samples;Min_cycle;Max_cycle;Signal;HPM_P1;HPM_P2
2021/07/23 00:01:33;;;;;;;2.17;1.62;;;;;;;;;;4402459;32;20308;-55
2021/07/23 00:03:58;;;;;;;2.12;1.62;;;;;;;;;;4402272;32;20225;-55
2021/07/23 00:06:24;;;;;;;3.70;1.80;;;;;;;;;;4403257;32;20406;-55
2021/07/23 00:08:49;;;;;;;2.65;1.65;;;;;;;;;;4403423;32;20209;-55
2021/07/23 00:11:14;;;;;;;2.00;1.50;;;;;;;;;;4403177;32;20213;-55
2021/07/23 00:13:40;;;;;;;2.67;1.50;;;;;;;;;;4403340;32;20217;-54
2021/07/23 00:16:05;;;;;;;3.33;1.85;;;;;;;;;;4402129;32;20377;-55
2021/07/23 00:18:31;;;;;;;3.10;1.58;;;;;;;;;;4401851;32;20221;-55
2021/07/23 00:20:56;;;;;;;2.70;1.90;;;;;;;;;;4403255;32;20668;-57
2021/07/23 00:23:22;;;;;;;2.00;1.67;;;;;;;;;;4401708;32;20282;-55
2021/07/23 00:25:47;;;;;;;3.00;1.73;;;;;;;;;;4403279;32;20304;-54
2021/07/23 00:28:13;;;;;;;2.20;1.85;;;;;;;;;;4402843;32;20218;-55
2021/07/23 00:30:39;;;;;;;2.22;1.90;;;;;;;;;;4402937;32;20646;-56
2021/07/23 00:33:04;;;;;;;2.97;2.22;;;;;;;;;;4401538;32;20213;-54
2021/07/23 00:35:30;;;;;;;4.37;1.77;;;;;;;;;;4402370;32;20311;-54
2021/07/23 00:37:57;;;;;;;3.80;1.85;;;;;;;;;;4401585;32;20288;-54
2021/07/23 00:40:23;;;;;;;4.25;1.62;;;;;;;;;;4403044;32;20233;-55
2021/07/23 00:42:49;;;;;;;3.05;2.08;;;;;;;;;;4403173;32;20235;-55
2021/07/23 00:45:15;;;;;;;2.53;2.03;;;;;;;;;;4402890;32;20269;-54
2021/07/23 00:47:43;;;;;;;1.70;1.40;;;;;;;;;;4403171;32;20303;-54
2021/07/23 00:50:10;;;;;;;3.17;1.95;;;;;;;;;;4402913;32;20638;-54
2021/07/23 00:52:37;;;;;;;3.70;1.83;;;;;;;;;;4402974;32;20197;-55
2021/07/23 00:55:03;;;;;;;2.62;1.67;;;;;;;;;;4402940;32;20251;-55
2021/07/23 00:57:30;;;;;;;4.32;1.87;;;;;;;;;;4402568;32;20392;-56
2021/07/23 00:59:57;;;;;;;2.12;1.60;;;;;;;;;;4401879;32;20228;-54
2021/07/23 01:02:22;;;;;;;2.97;1.90;;;;;;;;;;4403018;32;20201;-56
2021/07/23 01:04:49;;;;;;;1.90;1.45;;;;;;;;;;4402896;32;20277;-54
2021/07/23 01:07:15;;;;;;;1.95;1.48;;;;;;;;;;4402780;32;20201;-54
2021/07/23 01:09:41;;;;;;;2.58;1.73;;;;;;;;;;4403124;32;20212;-55
2021/07/23 01:12:08;;;;;;;2.83;1.67;;;;;;;;;;4402965;32;20189;-55
2021/07/23 01:14:35;;;;;;;4.10;1.83;;;;;;;;;;4403065;32;20279;-54
2021/07/23 01:17:01;;;;;;;2.75;1.62;;;;;;;;;;4402787;32;20228;-54
2021/07/23 01:19:32;;;;;;;1.92;1.73;;;;;;;;;;4401853;32;20650;-55
2021/07/23 01:22:00;;;;;;;2.67;1.60;;;;;;;;;;4402673;32;20284;-55
2021/07/23 01:24:26;;;;;;;3.00;1.92;;;;;;;;;;4403257;32;20271;-54
2021/07/23 01:26:53;;;;;;;2.20;1.62;;;;;;;;;;4402745;32;20272;-56
2021/07/23 01:29:18;;;;;;;3.20;2.37;;;;;;;;;;4402379;32;20338;-54
2021/07/23 01:31:44;;;;;;;1.95;1.20;;;;;;;;;;4402809;32;20347;-54
2021/07/23 01:34:09;;;;;;;2.15;1.75;;;;;;;;;;4402497;32;20359;-54
2021/07/23 01:36:35;;;;;;;3.03;2.25;;;;;;;;;;4402803;32;20285;-55
2021/07/23 01:39:01;;;;;;;3.70;1.95;;;;;;;;;;4402587;32;20279;-55
2021/07/23 01:41:26;;;;;;;2.08;1.87;;;;;;;;;;4402589;32;20275;-55
2021/07/23 01:43:52;;;;;;;1.62;1.52;;;;;;;;;;4402813;32;20217;-54
2021/07/23 01:46:17;;;;;;;1.98;1.45;;;;;;;;;;4404628;32;20296;-54
2021/07/23 01:48:43;;;;;;;1.50;1.40;;;;;;;;;;4404231;32;20228;-55
2021/07/23 01:51:08;;;;;;;2.22;1.42;;;;;;;;;;4405162;32;20268;-56
2021/07/23 01:53:34;;;;;;;2.15;1.90;;;;;;;;;;4405231;32;20264;-55
2021/07/23 01:56:00;;;;;;;3.17;1.67;;;;;;;;;;4404093;32;20312;-56
2021/07/23 01:58:26;;;;;;;2.62;1.62;;;;;;;;;;4404950;32;20342;-54
2021/07/23 02:00:51;;;;;;;3.28;1.50;;;;;;;;;;4405281;32;20269;-55
2021/07/23 02:03:17;;;;;;;1.42;1.23;;;;;;;;;;4405135;32;20221;-54
2021/07/23 02:05:42;;;;;;;1.87;1.50;;;;;;;;;;4405598;32;20256;-55
2021/07/23 02:08:08;;;;;;;3.65;2.00;;;;;;;;;;4404879;32;20215;-55
2021/07/23 02:10:33;;;;;;;1.50;1.40;;;;;;;;;;4403773;32;20271;-54
2021/07/23 02:13:00;;;;;;;2.37;2.15;;;;;;;;;;4405141;32;20353;-54
2021/07/23 02:15:26;;;;;;;3.85;1.67;;;;;;;;;;4404618;32;20578;-54
2021/07/23 02:17:52;;;;;;;2.58;1.75;;;;;;;;;;4401440;32;20300;-54
2021/07/23 02:20:17;;;;;;;3.03;1.67;;;;;;;;;;4389875;32;20319;-54
2021/07/23 02:22:43;;;;;;;3.20;1.67;;;;;;;;;;4389654;32;20296;-54
2021/07/23 02:25:09;;;;;;;3.25;1.73;;;;;;;;;;4388179;32;20626;-54
2021/07/23 02:27:34;;;;;;;1.62;1.27;;;;;;;;;;4389306;32;20335;-56
2021/07/23 02:30:01;;;;;;;2.80;2.03;;;;;;;;;;4389812;32;20345;-54
2021/07/23 02:32:27;;;;;;;2.55;2.00;;;;;;;;;;4401317;32;20290;-55
2021/07/23 02:34:53;;;;;;;3.80;2.12;;;;;;;;;;4404629;32;20214;-54
2021/07/23 02:37:18;;;;;;;2.67;1.40;;;;;;;;;;4404800;32;20264;-54
2021/07/23 02:39:43;;;;;;;2.65;1.77;;;;;;;;;;4404972;32;20243;-54
2021/07/23 02:42:09;;;;;;;2.92;1.80;;;;;;;;;;4403391;32;20280;-54
2021/07/23 02:44:34;;;;;;;3.17;2.12;;;;;;;;;;4404587;32;20284;-54
2021/07/23 02:47:00;;;;;;;2.17;1.65;;;;;;;;;;4404642;32;20276;-54
2021/07/23 02:49:25;;;;;;;2.08;1.87;;;;;;;;;;4404559;32;20605;-55
2021/07/23 02:51:51;;;;;;;2.55;2.00;;;;;;;;;;4404761;32;20626;-54
2021/07/23 02:54:16;;;;;;;2.80;1.87;;;;;;;;;;4404459;32;20260;-53
2021/07/23 02:56:42;;;;;;;3.58;2.15;;;;;;;;;;4390031;32;20365;-54
2021/07/23 02:59:07;;;;;;;3.03;1.50;;;;;;;;;;4404573;32;20288;-55
2021/07/23 03:01:33;;;;;;;5.40;2.05;;;;;;;;;;4404500;32;20277;-55
2021/07/23 03:03:59;;;;;;;3.25;2.00;;;;;;;;;;4404581;32;20234;-55
2021/07/23 03:06:24;;;;;;;2.75;1.80;;;;;;;;;;4404208;32;20590;-54
2021/07/23 03:08:49;;;;;;;4.40;2.60;;;;;;;;;;4404441;32;20221;-54
2021/07/23 03:11:15;;;;;;;4.15;2.58;;;;;;;;;;4403769;32;20210;-53
2021/07/23 03:13:41;;;;;;;5.53;3.28;;;;;;;;;;4404251;32;20664;-55
2021/07/23 03:16:11;;;;;;;8.45;4.25;;;;;;;;;;4404785;32;20280;-56
2021/07/23 03:18:37;;;;;;;9.43;3.95;;;;;;;;;;4395015;32;20239;-55
2021/07/23 03:21:02;;;;;;;4.97;2.90;;;;;;;;;;4386714;32;20297;-56
2021/07/23 03:23:28;;;;;;;4.87;2.92;;;;;;;;;;4388593;32;20697;-54
2021/07/23 03:25:53;;;;;;;5.18;2.97;;;;;;;;;;4389250;32;20349;-54
2021/07/23 03:28:19;;;;;;;4.62;2.90;;;;;;;;;;4388351;32;20273;-54
2021/07/23 03:30:44;;;;;;;4.32;3.22;;;;;;;;;;4388726;32;20291;-55
2021/07/23 03:33:09;;;;;;;8.68;3.47;;;;;;;;;;4388684;32;20226;-54
2021/07/23 03:35:35;;;;;;;7.82;3.47;;;;;;;;;;4388774;32;20388;-54
2021/07/23 03:38:01;;;;;;;5.15;3.15;;;;;;;;;;4395913;32;20209;-55
2021/07/23 03:40:26;;;;;;;7.97;4.15;;;;;;;;;;4403879;32;20747;-55
2021/07/23 03:42:52;;;;;;;8.88;4.22;;;;;;;;;;4403468;32;20582;-54
2021/07/23 03:45:17;;;;;;;6.20;3.05;;;;;;;;;;4403989;32;20288;-55
2021/07/23 03:47:43;;;;;;;7.90;4.37;;;;;;;;;;4403997;32;20274;-54
2021/07/23 03:50:08;;;;;;;6.68;3.60;;;;;;;;;;4403937;32;20652;-55
2021/07/23 03:52:34;;;;;;;7.43;4.00;;;;;;;;;;4402594;32;20330;-56
2021/07/23 03:54:59;;;;;;;8.48;4.53;;;;;;;;;;4388697;32;20210;-55
2021/07/23 03:57:25;;;;;;;6.28;3.75;;;;;;;;;;4388625;32;20273;-55
2021/07/23 03:59:50;;;;;;;9.25;4.35;;;;;;;;;;4388596;32;20214;-55
2021/07/23 04:02:16;;;;;;;8.57;4.15;;;;;;;;;;4388429;32;20630;-54
2021/07/23 04:04:41;;;;;;;6.43;3.83;;;;;;;;;;4388627;32;20221;-55
2021/07/23 04:07:07;;;;;;;18.25;7.28;;;;;;;;;;4388480;32;20314;-55
2021/07/23 04:09:32;;;;;;;23.95;11.10;;;;;;;;;;4387193;32;20325;-54
2021/07/23 04:11:57;;;;;;;20.77;10.43;;;;;;;;;;4387974;32;20347;-55
2021/07/23 04:14:23;;;;;;;28.08;12.98;;;;;;;;;;4388593;32;20217;-54
2021/07/23 04:16:49;;;;;;;26.73;13.68;;;;;;;;;;4388597;32;20707;-54
2021/07/23 04:19:16;;;;;;;30.37;12.55;;;;;;;;;;4388342;32;20252;-55
2021/07/23 04:21:42;;;;;;;18.95;8.93;;;;;;;;;;4387057;32;20670;-55
2021/07/23 04:24:07;;;;;;;28.45;12.07;;;;;;;;;;4388585;32;20222;-55
2021/07/23 04:26:33;;;;;;;45.30;16.55;;;;;;;;;;4388390;32;20265;-55
2021/07/23 04:28:59;;;;;;;78.40;30.60;;;;;;;;;;4400322;32;20229;-55
2021/07/23 04:31:24;;;;;;;123.62;49.33;;;;;;;;;;4403532;32;20355;-54
2021/07/23 04:33:50;;;;;;;87.88;33.00;;;;;;;;;;4402996;32;20593;-54
2021/07/23 04:36:16;;;;;;;58.92;26.85;;;;;;;;;;4403294;32;20298;-55
2021/07/23 04:38:41;;;;;;;33.45;17.87;;;;;;;;;;4402965;32;20505;-54
2021/07/23 04:41:07;;;;;;;30.05;10.75;;;;;;;;;;4403045;32;20273;-54
2021/07/23 04:43:32;;;;;;;30.52;13.98;;;;;;;;;;4403307;32;20256;-54
2021/07/23 04:45:59;;;;;;;35.20;12.37;;;;;;;;;;4403216;32;20759;-54
2021/07/23 04:48:24;;;;;;;18.00;9.70;;;;;;;;;;4403381;32;20256;-55
2021/07/23 04:50:50;;;;;;;32.67;13.00;;;;;;;;;;4403338;32;20593;-57
2021/07/23 04:53:16;;;;;;;33.47;12.40;;;;;;;;;;4402880;32;20213;-54
2021/07/23 04:55:42;;;;;;;27.37;11.55;;;;;;;;;;4403027;32;20693;-55
2021/07/23 04:58:07;;;;;;;33.20;13.15;;;;;;;;;;4402843;32;20279;-55
2021/07/23 05:00:33;;;;;;;43.33;16.90;;;;;;;;;;4402883;32;20629;-56
2021/07/23 05:02:58;;;;;;;29.17;13.88;;;;;;;;;;4403319;32;20272;-55
2021/07/23 05:05:24;;;;;;;30.50;12.88;;;;;;;;;;4402050;32;20268;-57
2021/07/23 05:07:50;;;;;;;45.95;17.77;;;;;;;;;;4402913;32;20281;-54
2021/07/23 05:10:16;;;;;;;48.87;17.42;;;;;;;;;;4401709;32;20217;-54
2021/07/23 05:12:43;;;;;;;49.58;19.65;;;;;;;;;;4402827;32;20280;-54
2021/07/23 05:15:10;;;;;;;49.40;16.80;;;;;;;;;;4402940;32;20634;-55
2021/07/23 05:17:38;;;;;;;40.28;15.40;;;;;;;;;;4403123;32;20604;-55
2021/07/23 05:20:04;;;;;;;39.40;15.15;;;;;;;;;;4403260;32;20689;-54
2021/07/23 05:22:31;;;;;;;22.02;8.88;;;;;;;;;;4406120;32;20510;-55
2021/07/23 05:24:57;;;;;;;24.58;8.35;;;;;;;;;;4405453;32;20705;-54
2021/07/23 05:27:23;;;;;;;25.35;11.15;;;;;;;;;;4401693;32;20310;-55
2021/07/23 05:29:48;;;;;;;38.88;14.10;;;;;;;;;;4390682;32;20558;-55
2021/07/23 05:32:14;;;;;;;14.02;7.40;;;;;;;;;;4390810;32;20276;-55
2021/07/23 05:34:39;;;;;;;11.43;5.87;;;;;;;;;;4389988;32;20283;-54
2021/07/23 05:37:05;;;;;;;14.75;6.30;;;;;;;;;;4390798;32;20280;-54
2021/07/23 05:39:30;;;;;;;23.80;9.93;;;;;;;;;;4404100;32;20221;-54
2021/07/23 05:41:55;;;;;;;24.15;10.43;;;;;;;;;;4403158;32;20689;-54
2021/07/23 05:44:21;;;;;;;26.35;10.27;;;;;;;;;;4403703;32;20572;-54
2021/07/23 05:46:46;;;;;;;25.17;10.45;;;;;;;;;;4402960;32;20314;-55
2021/07/23 05:49:12;;;;;;;24.55;11.35;;;;;;;;;;4402016;32;20283;-55
2021/07/23 05:51:37;;;;;;;30.35;11.73;;;;;;;;;;4404006;32;20284;-55
2021/07/23 05:54:03;;;;;;;28.95;13.30;;;;;;;;;;4404282;32;20213;-54
2021/07/23 05:56:28;;;;;;;17.52;9.65;;;;;;;;;;4405571;32;20265;-54
2021/07/23 05:58:54;;;;;;;25.70;10.48;;;;;;;;;;4404838;32;20230;-53
2021/07/23 06:01:19;;;;;;;22.35;9.88;;;;;;;;;;4405764;32;20275;-54
2021/07/23 06:03:45;;;;;;;21.90;10.68;;;;;;;;;;4403776;32;20267;-55
2021/07/23 06:06:10;;;;;;;16.00;7.93;;;;;;;;;;4405904;32;20272;-54
2021/07/23 06:08:36;;;;;;;20.85;8.85;;;;;;;;;;4405277;32;20244;-54
2021/07/23 06:11:07;;;;;;;21.90;8.88;;;;;;;;;;4404832;32;20232;-54
2021/07/23 06:13:36;;;;;;;15.50;6.70;;;;;;;;;;4405295;32;20530;-54
2021/07/23 06:16:04;;;;;;;13.25;6.97;;;;;;;;;;4405092;32;20198;-54
2021/07/23 06:18:29;;;;;;;20.92;8.00;;;;;;;;;;4405033;32;20234;-54
2021/07/23 06:20:55;;;;;;;21.45;7.55;;;;;;;;;;4404564;32;20729;-55
2021/07/23 06:23:20;;;;;;;16.08;7.30;;;;;;;;;;4405253;32;20511;-54
2021/07/23 06:25:45;;;;;;;16.17;6.87;;;;;;;;;;4405277;32;20281;-54
2021/07/23 06:28:11;;;;;;;7.10;4.28;;;;;;;;;;4404452;32;20268;-54
2021/07/23 06:30:36;;;;;;;6.78;3.78;;;;;;;;;;4405009;32;20291;-55
2021/07/23 06:33:02;;;;;;;11.12;4.70;;;;;;;;;;4403905;32;20232;-54
2021/07/23 06:35:30;;;;;;;4.32;3.33;;;;;;;;;;4405134;32;20374;-55
2021/07/23 06:37:56;;;;;;;10.98;6.32;;;;;;;;;;4404486;32;20564;-55
2021/07/23 06:40:22;;;;;;;5.50;3.42;;;;;;;;;;4405028;32;20674;-55
2021/07/23 06:42:48;;;;;;;7.75;4.12;;;;;;;;;;4404804;32;20283;-54
2021/07/23 06:45:13;;;;;;;10.20;3.55;;;;;;;;;;4404950;32;20276;-54
2021/07/23 06:47:39;;;;;;;6.90;3.90;;;;;;;;;;4404861;32;20272;-57
2021/07/23 06:50:05;;;;;;;7.78;4.57;;;;;;;;;;4404769;32;20217;-54
2021/07/23 06:52:31;;;;;;;11.20;5.05;;;;;;;;;;4404597;32;20360;-55
2021/07/23 06:54:56;;;;;;;9.68;4.40;;;;;;;;;;4404711;32;20278;-54
2021/07/23 06:57:22;;;;;;;8.57;3.83;;;;;;;;;;4404844;32;20257;-55
2021/07/23 06:59:49;;;;;;;6.07;3.40;;;;;;;;;;4404653;32;20326;-55
2021/07/23 07:02:15;;;;;;;11.25;4.75;;;;;;;;;;4404704;32;20224;-55
2021/07/23 07:04:42;;;;;;;5.75;4.05;;;;;;;;;;4404840;32;20213;-55
2021/07/23 07:07:08;;;;;;;5.47;3.60;;;;;;;;;;4404633;32;20228;-55
2021/07/23 07:09:33;;;;;;;3.30;2.95;;;;;;;;;;4403271;32;20558;-55
2021/07/23 07:11:58;;;;;;;4.12;3.33;;;;;;;;;;4403864;32;20217;-55
2021/07/23 07:14:25;;;;;;;4.87;2.87;;;;;;;;;;4404633;32;20607;-56
2021/07/23 07:16:51;;;;;;;5.70;3.62;;;;;;;;;;4404111;32;20222;-56
2021/07/23 07:19:17;;;;;;;6.93;4.03;;;;;;;;;;4404060;32;20684;-53
2021/07/23 07:21:48;;;;;;;8.27;4.05;;;;;;;;;;4402409;32;20292;-54
2021/07/23 07:24:15;;;;;;;6.60;3.60;;;;;;;;;;4404250;32;20534;-54
2021/07/23 07:26:40;;;;;;;3.72;2.60;;;;;;;;;;4404152;32;20226;-54
2021/07/23 07:29:06;;;;;;;9.38;3.92;;;;;;;;;;4389193;32;20300;-54
2021/07/23 07:31:31;;;;;;;5.05;3.42;;;;;;;;;;4393562;32;20285;-54
2021/07/23 07:33:57;;;;;;;6.22;3.42;;;;;;;;;;4404083;32;20268;-54
2021/07/23 07:36:22;;;;;;;4.10;2.83;;;;;;;;;;4404230;32;20288;-54
2021/07/23 07:38:48;;;;;;;4.75;2.92;;;;;;;;;;4402615;32;20300;-55
2021/07/23 07:41:18;;;;;;;6.22;3.37;;;;;;;;;;4404250;32;20268;-55
2021/07/23 07:43:43;;;;;;;7.62;3.87;;;;;;;;;;4402538;32;20264;-55
2021/07/23 07:46:09;;;;;;;7.07;3.87;;;;;;;;;;4404487;32;20261;-56
2021/07/23 07:48:34;;;;;;;6.97;3.40;;;;;;;;;;4404357;32;20247;-55
2021/07/23 07:51:00;;;;;;;6.35;3.58;;;;;;;;;;4404859;32;20375;-55
2021/07/23 07:53:25;;;;;;;7.05;3.55;;;;;;;;;;4403932;32;20431;-54
2021/07/23 07:55:51;;;;;;;4.45;2.95;;;;;;;;;;4403905;32;20306;-54
2021/07/23 07:58:16;;;;;;;4.68;2.60;;;;;;;;;;4402384;32;20634;-55
2021/07/23 08:00:42;;;;;;;4.72;2.75;;;;;;;;;;4403503;32;20298;-55
2021/07/23 08:03:07;;;;;;;2.97;2.67;;;;;;;;;;4402443;32;20264;-56
2021/07/23 08:05:33;;;;;;;3.95;2.37;;;;;;;;;;4402895;32;20229;-54
2021/07/23 08:07:59;;;;;;;5.05;3.42;;;;;;;;;;4402094;32;20315;-54
2021/07/23 08:10:26;;;;;;;6.55;3.40;;;;;;;;;;4400919;32;20255;-55
2021/07/23 08:12:53;;;;;;;3.50;2.75;;;;;;;;;;4400896;32;20256;-55
2021/07/23 08:15:19;;;;;;;4.43;2.72;;;;;;;;;;4401476;32;20743;-55
2021/07/23 08:17:44;;;;;;;5.07;2.67;;;;;;;;;;4401323;32;20280;-55
2021/07/23 08:20:10;;;;;;;2.37;2.00;;;;;;;;;;4402468;32;20807;-56
2021/07/23 08:22:36;;;;;;;9.13;3.45;;;;;;;;;;4403688;32;20276;-55
2021/07/23 08:25:02;;;;;;;4.05;2.95;;;;;;;;;;4403204;32;20441;-55
2021/07/23 08:27:28;;;;;;;7.40;3.28;;;;;;;;;;4401685;32;20316;-56
2021/07/23 08:29:55;;;;;;;4.50;2.90;;;;;;;;;;4403473;32;20592;-55
2021/07/23 08:32:23;;;;;;;2.47;1.95;;;;;;;;;;4403239;32;20586;-54
2021/07/23 08:34:59;;;;;;;5.03;2.80;;;;;;;;;;4402847;32;20229;-55
2021/07/23 08:37:26;;;;;;;4.85;3.05;;;;;;;;;;4403261;32;20284;-54
2021/07/23 08:39:55;;;;;;;3.20;1.73;;;;;;;;;;4402337;32;20221;-55
2021/07/23 08:42:27;;;;;;;2.85;2.10;;;;;;;;;;4403354;32;20562;-55
2021/07/23 08:44:59;;;;;;;3.72;2.35;;;;;;;;;;4403126;32;20626;-54
2021/07/23 08:47:27;;;;;;;3.83;2.78;;;;;;;;;;4403277;32;20220;-55
2021/07/23 08:49:57;;;;;;;4.90;3.10;;;;;;;;;;4402895;32;20221;-55
2021/07/23 08:52:45;;;;;;;3.05;2.30;;;;;;;;;;4403179;32;20220;-55
2021/07/23 08:55:19;;;;;;;3.83;2.40;;;;;;;;;;4403218;32;20294;-56
2021/07/23 08:57:53;;;;;;;6.82;3.12;;;;;;;;;;4405933;32;20319;-55
2021/07/23 09:00:25;;;;;;;3.62;2.53;;;;;;;;;;4406274;32;20208;-54
2021/07/23 09:03:00;;;;;;;3.72;2.65;;;;;;;;;;4405909;32;20622;-55
2021/07/23 09:05:32;;;;;;;4.80;2.42;;;;;;;;;;4406539;32;20211;-54
2021/07/23 09:08:15;;;;;;;3.62;2.45;;;;;;;;;;4405834;32;20258;-55
2021/07/23 09:11:03;;;;;;;2.62;2.25;;;;;;;;;;4405900;32;20672;-54
2021/07/23 09:13:37;;;;;;;3.30;2.20;;;;;;;;;;4405512;32;20672;-55
2021/07/23 09:16:32;;;;;;;2.72;2.25;;;;;;;;;;4406654;32;20531;-55
2021/07/23 09:19:14;;;;;;;3.35;2.30;;;;;;;;;;4406177;32;20291;-55
2021/07/23 09:22:09;;;;;;;3.20;2.42;;;;;;;;;;4406417;32;20181;-55
2021/07/23 09:25:10;;;;;;;3.67;2.70;;;;;;;;;;4405548;32;20331;-55
2021/07/23 09:28:00;;;;;;;3.10;2.55;;;;;;;;;;4398012;32;20680;-56
2021/07/23 09:31:08;;;;;;;4.25;2.42;;;;;;;;;;4391524;32;20370;-56
2021/07/23 09:34:04;;;;;;;4.22;2.37;;;;;;;;;;4405973;32;20280;-55
2021/07/23 09:37:20;;;;;;;3.28;2.33;;;;;;;;;;4405507;32;20511;-55
2021/07/23 09:40:20;;;;;;;3.90;2.75;;;;;;;;;;4389384;32;20298;-55
2021/07/23 09:43:15;;;;;;;9.63;2.75;;;;;;;;;;4390213;32;20261;-56
2021/07/23 09:46:30;;;;;;;2.87;2.30;;;;;;;;;;4390564;32;20196;-56
2021/07/23 09:50:01;;;;;;;2.10;1.90;;;;;;;;;;4373020;32;20266;-56
2021/07/23 09:52:45;;;;;;;3.10;2.22;;;;;;;;;;4370881;32;20305;-55
2021/07/23 09:55:14;;;;;;;3.58;2.30;;;;;;;;;;4313955;33;20298;-56
2021/07/23 09:57:46;;;;;;;4.93;2.60;;;;;;;;;;4314007;33;20302;-55
2021/07/23 10:00:13;;;;;;;2.53;1.87;;;;;;;;;;4313956;33;20283;-55
2021/07/23 10:02:43;;;;;;;2.92;2.10;;;;;;;;;;4313830;33;20343;-56
2021/07/23 10:05:13;;;;;;;5.78;2.50;;;;;;;;;;4318719;33;20305;-55
2021/07/23 10:07:59;;;;;;;4.40;2.53;;;;;;;;;;4315839;33;20343;-55
2021/07/23 10:10:25;;;;;;;3.10;2.10;;;;;;;;;;4317158;33;20763;-55
2021/07/23 10:12:53;;;;;;;3.28;2.40;;;;;;;;;;4327488;33;20731;-55
2021/07/23 10:15:19;;;;;;;3.83;2.00;;;;;;;;;;4327922;33;20408;-57
2021/07/23 10:17:46;;;;;;;4.20;2.22;;;;;;;;;;4327696;33;20767;-57
2021/07/23 10:20:13;;;;;;;3.72;2.42;;;;;;;;;;4327773;33;20268;-58
2021/07/23 10:22:40;;;;;;;6.57;2.45;;;;;;;;;;4328252;33;20301;-58
2021/07/23 10:25:07;;;;;;;2.60;1.87;;;;;;;;;;4327854;33;20234;-57
2021/07/23 10:27:32;;;;;;;2.95;1.98;;;;;;;;;;4327038;33;20211;-58
2021/07/23 10:29:58;;;;;;;3.37;2.58;;;;;;;;;;4327860;33;20381;-57
2021/07/23 10:32:27;;;;;;;3.00;2.03;;;;;;;;;;4327806;33;20329;-58
2021/07/23 10:34:54;;;;;;;4.00;1.92;;;;;;;;;;4327201;33;20254;-57
2021/07/23 10:37:29;;;;;;;3.17;2.05;;;;;;;;;;4327527;33;20240;-57
2021/07/23 10:40:09;;;;;;;5.55;2.37;;;;;;;;;;4327397;33;20269;-58
2021/07/23 10:42:39;;;;;;;2.40;1.77;;;;;;;;;;4327485;33;20766;-58
2021/07/23 10:45:14;;;;;;;3.03;2.53;;;;;;;;;;4331485;33;20231;-56
2021/07/23 10:47:49;;;;;;;4.68;2.17;;;;;;;;;;4341722;33;20240;-57
2021/07/23 10:50:21;;;;;;;2.97;2.10;;;;;;;;;;4339413;33;20230;-56
2021/07/23 10:52:47;;;;;;;2.95;2.37;;;;;;;;;;4341907;33;20818;-57
2021/07/23 10:55:21;;;;;;;2.80;2.40;;;;;;;;;;4341810;33;20325;-57
2021/07/23 10:58:05;;;;;;;3.50;2.15;;;;;;;;;;4342051;33;20295;-57
2021/07/23 11:00:52;;;;;;;2.75;1.75;;;;;;;;;;4342321;33;20306;-56
2021/07/23 11:03:42;;;;;;;3.97;2.75;;;;;;;;;;4327544;33;20656;-57
2021/07/23 11:06:26;;;;;;;12.73;2.22;;;;;;;;;;4327649;33;20324;-57
2021/07/23 11:08:54;;;;;;;2.87;1.87;;;;;;;;;;4326730;33;20258;-57
2021/07/23 11:11:25;;;;;;;4.05;1.90;;;;;;;;;;4327119;33;20220;-59
2021/07/23 11:13:50;;;;;;;2.92;2.45;;;;;;;;;;4327046;33;20239;-58
2021/07/23 11:16:18;;;;;;;3.20;2.40;;;;;;;;;;4327437;33;20360;-60
2021/07/23 11:18:51;;;;;;;4.28;2.72;;;;;;;;;;4326501;33;20230;-59
2021/07/23 11:21:16;;;;;;;3.33;2.30;;;;;;;;;;4326947;33;20643;-58
2021/07/23 11:23:42;;;;;;;3.03;2.15;;;;;;;;;;4326874;33;20234;-59
2021/07/23 11:26:07;;;;;;;3.12;2.20;;;;;;;;;;4326856;33;20277;-58
2021/07/23 11:28:47;;;;;;;2.83;2.00;;;;;;;;;;4337206;33;20635;-58
2021/07/23 11:31:32;;;;;;;3.72;2.22;;;;;;;;;;4384138;32;20259;-59
2021/07/23 11:33:58;;;;;;;3.83;2.03;;;;;;;;;;4403669;32;20306;-58
2021/07/23 11:36:38;;;;;;;3.17;2.30;;;;;;;;;;4402967;32;20323;-55
2021/07/23 11:39:06;;;;;;;2.80;2.17;;;;;;;;;;4401267;32;20213;-56
2021/07/23 11:41:31;;;;;;;2.28;1.80;;;;;;;;;;4404056;32;20194;-56
2021/07/23 11:44:10;;;;;;;4.25;2.70;;;;;;;;;;4403940;32;20356;-56
2021/07/23 11:46:40;;;;;;;5.57;3.35;;;;;;;;;;4402538;32;20292;-55
2021/07/23 11:49:06;;;;;;;6.15;2.83;;;;;;;;;;4403856;32;20288;-56
2021/07/23 11:51:43;;;;;;;3.15;2.25;;;;;;;;;;4404143;32;20296;-56
2021/07/23 11:54:12;;;;;;;2.05;1.85;;;;;;;;;;4403657;32;20720;-56
2021/07/23 11:56:38;;;;;;;5.00;2.53;;;;;;;;;;4404186;32;20223;-54
2021/07/23 11:59:04;;;;;;;3.12;2.60;;;;;;;;;;4403412;32;20245;-56
2021/07/23 12:01:36;;;;;;;4.85;2.72;;;;;;;;;;4402149;32;20324;-56
2021/07/23 12:04:02;;;;;;;3.00;1.98;;;;;;;;;;4403509;32;20214;-55
2021/07/23 12:06:31;;;;;;;4.10;2.28;;;;;;;;;;4402294;32;20369;-56
2021/07/23 12:09:00;;;;;;;4.07;3.12;;;;;;;;;;4403150;32;20217;-55
2021/07/23 12:11:26;;;;;;;3.17;2.30;;;;;;;;;;4401699;32;20271;-55
2021/07/23 12:13:52;;;;;;;3.33;2.33;;;;;;;;;;4402846;32;20337;-56
2021/07/23 12:16:18;;;;;;;2.85;2.35;;;;;;;;;;4402748;32;20280;-56
2021/07/23 12:18:57;;;;;;;2.83;2.28;;;;;;;;;;4402611;32;20726;-56
2021/07/23 12:21:24;;;;;;;3.20;2.30;;;;;;;;;;4402774;32;20198;-56
2021/07/23 12:24:02;;;;;;;2.58;1.95;;;;;;;;;;4402590;32;20294;-56
2021/07/23 12:26:30;;;;;;;2.35;1.90;;;;;;;;;;4402822;32;20283;-55
2021/07/23 12:28:57;;;;;;;2.85;2.03;;;;;;;;;;4388700;32;20217;-56
2021/07/23 12:31:23;;;;;;;2.62;2.28;;;;;;;;;;4387435;32;20291;-56
2021/07/23 12:34:11;;;;;;;3.35;2.10;;;;;;;;;;4387356;32;20369;-56
2021/07/23 12:36:46;;;;;;;4.78;2.53;;;;;;;;;;4387762;32;20198;-56
2021/07/23 12:39:13;;;;;;;4.93;2.55;;;;;;;;;;4402351;32;20255;-56
2021/07/23 12:41:40;;;;;;;4.18;2.37;;;;;;;;;;4402542;32;20598;-57
2021/07/23 12:44:16;;;;;;;3.50;2.62;;;;;;;;;;4402757;32;20273;-56
2021/07/23 12:46:50;;;;;;;4.50;2.47;;;;;;;;;;4402709;32;20512;-57
2021/07/23 12:49:21;;;;;;;3.70;2.80;;;;;;;;;;4402711;32;20270;-56
2021/07/23 12:51:59;;;;;;;4.10;2.67;;;;;;;;;;4402429;32;20187;-56
2021/07/23 12:54:37;;;;;;;4.53;2.75;;;;;;;;;;4402115;32;20298;-55
2021/07/23 12:57:20;;;;;;;4.72;2.90;;;;;;;;;;4402392;32;20196;-56
2021/07/23 12:59:47;;;;;;;3.60;2.97;;;;;;;;;;4401947;32;20217;-56
2021/07/23 13:02:22;;;;;;;3.35;2.47;;;;;;;;;;4402406;32;20633;-56
2021/07/23 13:04:52;;;;;;;3.92;3.08;;;;;;;;;;4402373;32;20288;-57
2021/07/23 13:07:17;;;;;;;4.72;3.08;;;;;;;;;;4402003;32;20202;-57
2021/07/23 13:09:44;;;;;;;3.47;2.65;;;;;;;;;;4401811;32;20217;-56
2021/07/23 13:12:11;;;;;;;6.20;3.37;;;;;;;;;;4402553;32;20256;-56
2021/07/23 13:14:37;;;;;;;4.68;3.37;;;;;;;;;;4403000;32;20210;-55
2021/07/23 13:17:03;;;;;;;4.95;3.33;;;;;;;;;;4403088;32;20641;-57
2021/07/23 13:19:29;;;;;;;4.93;3.30;;;;;;;;;;4402763;32;20359;-56
2021/07/23 13:21:54;;;;;;;4.12;3.53;;;;;;;;;;4401396;32;20324;-56
2021/07/23 13:24:20;;;;;;;4.30;3.20;;;;;;;;;;4402804;32;20326;-56
2021/07/23 13:26:45;;;;;;;3.58;3.15;;;;;;;;;;4402509;32;20290;-56
2021/07/23 13:29:11;;;;;;;4.70;3.85;;;;;;;;;;4400373;32;20257;-57
2021/07/23 13:31:37;;;;;;;4.40;3.12;;;;;;;;;;4402663;32;20349;-57
2021/07/23 13:34:03;;;;;;;3.65;2.92;;;;;;;;;;4402379;32;20305;-55
2021/07/23 13:36:39;;;;;;;3.85;3.30;;;;;;;;;;4403088;32;20276;-56
2021/07/23 13:39:07;;;;;;;4.70;4.15;;;;;;;;;;4402738;32;20327;-55
2021/07/23 13:41:36;;;;;;;4.43;3.33;;;;;;;;;;4403661;32;20194;-57
2021/07/23 13:44:06;;;;;;;5.12;3.45;;;;;;;;;;4405335;32;20542;-56
2021/07/23 13:46:33;;;;;;;4.00;2.97;;;;;;;;;;4405457;32;20215;-56
2021/07/23 13:48:58;;;;;;;5.78;3.35;;;;;;;;;;4405027;32;20332;-56
2021/07/23 13:51:24;;;;;;;3.97;3.37;;;;;;;;;;4405272;32;20311;-56
2021/07/23 13:53:49;;;;;;;3.85;3.00;;;;;;;;;;4403962;32;20293;-56
2021/07/23 13:56:15;;;;;;;6.30;3.75;;;;;;;;;;4405743;32;20299;-56
2021/07/23 13:58:41;;;;;;;3.75;2.78;;;;;;;;;;4404272;32;20233;-56
2021/07/23 14:01:07;;;;;;;4.82;3.20;;;;;;;;;;4405566;32;20299;-57
2021/07/23 14:03:32;;;;;;;7.47;3.28;;;;;;;;;;4405357;32;20213;-56
2021/07/23 14:05:58;;;;;;;5.87;2.58;;;;;;;;;;4405489;32;20661;-57
2021/07/23 14:08:23;;;;;;;3.25;2.80;;;;;;;;;;4404993;32;20266;-56
2021/07/23 14:10:49;;;;;;;8.10;3.35;;;;;;;;;;4404928;32;20364;-56
2021/07/23 14:13:15;;;;;;;3.30;2.30;;;;;;;;;;4404900;32;20279;-56
2021/07/23 14:15:41;;;;;;;3.40;2.95;;;;;;;;;;4405075;32;20232;-56
2021/07/23 14:18:08;;;;;;;4.60;3.10;;;;;;;;;;4404966;32;20260;-56
2021/07/23 14:20:34;;;;;;;4.05;3.22;;;;;;;;;;4405198;32;20202;-56
2021/07/23 14:22:59;;;;;;;4.37;2.85;;;;;;;;;;4404791;32;20304;-55
2021/07/23 14:25:25;;;;;;;3.25;2.55;;;;;;;;;;4405254;32;20688;-56
2021/07/23 14:27:50;;;;;;;4.78;2.97;;;;;;;;;;4397649;32;20648;-57
2021/07/23 14:30:16;;;;;;;3.15;2.53;;;;;;;;;;4389090;32;20347;-55
2021/07/23 14:32:41;;;;;;;5.95;3.05;;;;;;;;;;4402227;32;20300;-56
2021/07/23 14:35:07;;;;;;;4.25;2.90;;;;;;;;;;4404566;32;20296;-56
2021/07/23 14:37:35;;;;;;;5.28;3.33;;;;;;;;;;4400677;32;20273;-57
2021/07/23 14:40:01;;;;;;;2.92;2.20;;;;;;;;;;4389903;32;20226;-56
2021/07/23 14:42:26;;;;;;;4.93;2.80;;;;;;;;;;4390033;32;20304;-56
2021/07/23 14:44:52;;;;;;;4.90;2.85;;;;;;;;;;4389894;32;20516;-56
2021/07/23 14:47:17;;;;;;;5.03;3.30;;;;;;;;;;4400418;32;20666;-56